x

Ilm2 - 5 Miles Se Of Wrightsville Beach, Nc (41038) Weather Station

10:08 - Thu 21st Sep 2017 All times are EDT. -4 hours from GMT.

  • Wind
    7mph, 11mph gusts
  • Sea Temp 78°f
  • Aire Temp 77°f
  • Sea Pressure 1017.1mb
  • Ilm2 - 5 Miles Se Of Wrightsville Beach, Nc
  • Ilm2 - 5 Miles Se Of Wrightsville Beach, Nc

More Historic Weather Station data

Upgrade to MSW Pro to gain access to the past 30 days of data for over 8000 Wavebouys and Weather Stations around the globe.

Join

Comparision Forecast

View Surf forecast
   
jue 09/21 10:08 7 11 mph 1017.1mb 78f 77f
9:08 7 11 mph 1017mb 78f 76f
8:08 9 13 mph 1016.7mb 78f 76f
7:08 11 16 mph 1016.1mb 78f 76f
6:08 11 16 mph 1015.5mb 78f 76f
5:08 11 18 mph 1015mb 78f 77f
4:08 13 18 mph 1014.9mb 78f 77f
3:08 11 18 mph 1015.1mb 78f 77f
2:08 13 18 mph 1015.2mb 79f 78f
1:08 13 22 mph 1015.5mb 79f 78f
12:08 13 20 mph 1015.5mb 79f 79f
mié 09/20 11:08 13 20 mph 1015.4mb 79f 78f
10:08 13 18 mph 1015.6mb 79f 79f
9:08 11 18 mph 1015.1mb 79f 79f
8:08 13 20 mph 1014.7mb 79f 80f
7:08 13 20 mph 1014.3mb 79f 80f
6:08 13 20 mph 1014mb 79f 80f
5:08 13 18 mph 1014mb 79f 80f
3:08 9 11 mph 1014.4mb 80f 80f
2:08 4 7 mph 1015.2mb 79f 82f
1:08 7 9 mph 1016mb 79f 82f
12:08 7 9 mph 1016.3mb 78f 80f
11:08 9 11 mph 1016.6mb 78f 79f
10:08 11 16 mph 1016.6mb 78f 78f
9:08 13 18 mph 1016.3mb 78f 76f
8:08 13 18 mph 1015.9mb 78f 75f
7:08 11 18 mph 1015.4mb 78f 75f
6:08 13 18 mph 1014.8mb 78f 75f
5:08 9 13 mph 1014.3mb 78f 75f
4:08 9 13 mph 1014mb 78f 75f
3:08 13 18 mph 1013.7mb 78f 76f
1:08 7 11 mph 1013.6mb 78f 77f
12:08 9 13 mph 1013.8mb 78f 78f
mar 09/19 11:08 4 7 mph 1013.8mb 78f 78f
10:08 2 4 mph 1013.7mb 78f 79f
9:08 2 7 mph 1013.5mb 78f 79f
8:08 7 9 mph 1013.2mb 79f 80f
7:08 7 9 mph 1012.5mb 79f 80f
6:08 9 13 mph 1012.2mb 79f 82f
5:08 11 16 mph 1011.9mb 79f 82f
4:08 13 18 mph 1012mb 79f 82f
3:08 13 18 mph 1012.6mb 79f 81f
2:08 11 16 mph 1013.1mb 78f 80f
1:08 13 18 mph 1013.7mb 78f 77f
12:08 13 20 mph 1014.3mb 78f 75f
11:08 16 25 mph 1014.4mb 78f 73f
10:08 16 25 mph 1014.5mb 78f 72f
9:08 18 29 mph 1014mb 78f 71f
8:08 18 27 mph 1013.5mb 78f 71f
7:08 18 27 mph 1013.1mb 78f 71f
6:08 20 29 mph 1012.9mb 78f 71f
5:08 18 27 mph 1012.3mb 78f 71f
4:08 18 27 mph 1011.9mb 78f 72f
3:08 16 22 mph 1012mb 78f 72f
2:08 16 25 mph 1012.6mb 78f 74f
1:08 16 22 mph 1012.9mb 78f 74f
12:08 16 27 mph 1013.5mb 78f 75f
lun 09/18 11:08 13 22 mph 1013.7mb 78f 75f
10:08 13 22 mph 1013.5mb 78f 76f
9:08 13 22 mph 1013.6mb 78f 77f
8:08 13 22 mph 1012.8mb 78f 78f
6:08 16 27 mph 1012.3mb 78f 80f
4:08 16 25 mph 1013mb 78f 79f
3:08 18 27 mph 1013.5mb 78f 78f
2:08 16 22 mph 1014mb 78f 78f
1:08 16 27 mph 1014.4mb 78f 77f
12:08 16 25 mph 1014.9mb 78f 75f
11:08 16 27 mph 1015.2mb 78f 75f
10:08 16 22 mph 1015.1mb 78f 74f
9:08 16 25 mph 1014.8mb 78f 73f
8:08 18 27 mph 1014.6mb 78f 72f
7:08 16 27 mph 1014.2mb 78f 72f
6:08 18 25 mph 1013.7mb 78f 72f
5:08 18 27 mph 1013.5mb 78f 71f
3:08 16 29 mph 1013.9mb 78f 72f
2:08 16 25 mph 1014.8mb 78f 74f
1:08 18 29 mph 1015mb 78f 74f
12:08 16 27 mph 1015.3mb 78f 75f
dom 09/17 11:08 18 31 mph 1015.5mb 78f 75f
10:08 20 31 mph 1016mb 78f 75f
9:08 18 29 mph 1016mb 78f 75f
8:08 18 29 mph 1015.4mb 78f 75f
7:08 18 27 mph 1014.9mb 79f 76f
6:08 16 22 mph 1014.4mb 79f 78f
5:08 11 16 mph 1014.6mb 79f 80f
4:08 9 13 mph 1014.7mb 79f 80f